Time;durP1;ratioP1;P1;durP2;ratioP2;P2;SDS_P1;SDS_P2;PMS_P1;PMS_P2;Temp;Humidity;BMP_temperature;BMP_pressure;BME280_temperature;BME280_humidity;BME280_pressure;Samples;Min_cycle;Max_cycle;Signal;HPM_P1;HPM_P2
2020/12/31 00:02:15;;;;;;;5.87;4.00;;;5.10;99.90;;;;;;5019731;28;20546;-72
2020/12/31 00:04:42;;;;;;;7.00;3.40;;;5.10;99.90;;;;;;5017343;28;20499;-72
2020/12/31 00:07:09;;;;;;;4.60;3.53;;;5.20;99.90;;;;;;5020953;28;20452;-71
2020/12/31 00:09:36;;;;;;;6.40;5.57;;;5.20;99.90;;;;;;5022793;28;20462;-71
2020/12/31 00:12:02;;;;;;;4.13;2.73;;;5.20;99.90;;;;;;5026692;28;20540;-72
2020/12/31 00:14:30;;;;;;;4.07;3.70;;;5.20;99.90;;;;;;5021587;28;20827;-72
2020/12/31 00:16:57;;;;;;;6.90;3.70;;;5.00;99.90;;;;;;5026037;28;20443;-71
2020/12/31 00:19:24;;;;;;;3.53;2.60;;;4.80;99.90;;;;;;5021772;28;20540;-72
2020/12/31 00:21:50;;;;;;;4.67;3.33;;;4.80;99.90;;;;;;5020121;28;20419;-71
2020/12/31 00:24:17;;;;;;;4.43;4.00;;;4.90;99.90;;;;;;5021070;28;20639;-73
2020/12/31 00:26:44;;;;;;;6.20;3.53;;;4.80;99.90;;;;;;5025077;28;20464;-71
2020/12/31 00:29:10;;;;;;;5.47;3.90;;;4.80;99.90;;;;;;5032354;28;20463;-71
2020/12/31 00:31:37;;;;;;;11.03;4.00;;;4.70;99.90;;;;;;5027252;28;20447;-72
2020/12/31 00:34:05;;;;;;;4.27;3.87;;;4.70;99.90;;;;;;5022756;28;20486;-71
2020/12/31 00:36:32;;;;;;;3.57;3.27;;;4.80;99.90;;;;;;5027653;28;20432;-72
2020/12/31 00:38:58;;;;;;;4.77;3.80;;;4.80;99.90;;;;;;5036573;28;21020;-72
2020/12/31 00:41:25;;;;;;;2.60;2.40;;;4.90;99.90;;;;;;5038351;28;20460;-72
2020/12/31 00:43:52;;;;;;;3.77;3.43;;;5.00;99.90;;;;;;5031095;28;20454;-72
2020/12/31 00:46:19;;;;;;;4.83;3.30;;;5.10;99.90;;;;;;5029408;28;20953;-72
2020/12/31 00:48:45;;;;;;;4.53;3.70;;;5.00;99.90;;;;;;5031911;28;20526;-72
2020/12/31 00:51:13;;;;;;;7.53;5.10;;;4.90;99.90;;;;;;5039625;28;20451;-72
2020/12/31 00:53:40;;;;;;;3.67;2.40;;;5.00;99.90;;;;;;5026020;28;20462;-72
2020/12/31 00:56:07;;;;;;;4.00;3.00;;;4.90;99.90;;;;;;5020748;28;20450;-72
2020/12/31 00:58:33;;;;;;;5.60;3.37;;;4.80;99.90;;;;;;5021457;28;21073;-72
2020/12/31 01:01:00;;;;;;;3.70;2.07;;;4.80;99.90;;;;;;5028689;28;20470;-72
2020/12/31 01:03:27;;;;;;;2.47;2.23;;;4.90;99.90;;;;;;5021361;28;20623;-72
2020/12/31 01:05:53;;;;;;;2.03;1.83;;;4.90;99.90;;;;;;5020225;28;20538;-72
2020/12/31 01:08:21;;;;;;;3.27;3.00;;;4.80;99.90;;;;;;5016579;28;20515;-72
2020/12/31 01:10:47;;;;;;;1.00;0.90;;;4.70;99.90;;;;;;5021479;28;20443;-72
2020/12/31 01:13:14;;;;;;;1.47;0.87;;;4.70;99.90;;;;;;5019088;28;20500;-72
2020/12/31 01:15:41;;;;;;;3.90;3.00;;;4.70;99.90;;;;;;5024800;28;20463;-71
2020/12/31 01:18:07;;;;;;;4.93;3.47;;;4.80;99.90;;;;;;5023623;28;20518;-72
2020/12/31 01:20:34;;;;;;;6.00;3.30;;;4.70;99.90;;;;;;5020819;28;20495;-71
2020/12/31 01:23:00;;;;;;;3.10;2.60;;;4.70;99.90;;;;;;5026210;28;20505;-71
2020/12/31 01:25:28;;;;;;;6.37;4.20;;;4.80;99.90;;;;;;5021369;28;20461;-71
2020/12/31 01:27:54;;;;;;;5.17;3.70;;;4.80;99.90;;;;;;5019876;28;20459;-71
2020/12/31 01:30:21;;;;;;;3.47;1.77;;;4.70;99.90;;;;;;5023828;28;20474;-71
2020/12/31 01:32:48;;;;;;;6.70;2.73;;;4.60;99.90;;;;;;5024170;28;20562;-71
2020/12/31 01:35:14;;;;;;;3.30;3.00;;;4.50;99.90;;;;;;5021197;28;20873;-71
2020/12/31 01:37:41;;;;;;;4.20;2.80;;;4.60;99.90;;;;;;5017505;28;20682;-71
2020/12/31 01:40:07;;;;;;;3.73;3.07;;;4.40;99.90;;;;;;5016413;28;20472;-73
2020/12/31 01:42:35;;;;;;;4.03;2.43;;;4.60;99.90;;;;;;5023651;28;20991;-71
2020/12/31 01:45:01;;;;;;;3.97;3.67;;;4.60;99.90;;;;;;5020786;28;20468;-71
2020/12/31 01:47:28;;;;;;;3.33;1.17;;;4.60;99.90;;;;;;5023855;28;20449;-71
2020/12/31 01:49:55;;;;;;;3.17;2.73;;;4.60;99.90;;;;;;5014199;28;20527;-71
2020/12/31 01:52:22;;;;;;;2.90;2.60;;;4.50;99.90;;;;;;5020280;28;21068;-71
2020/12/31 01:54:49;;;;;;;4.07;3.67;;;4.50;99.90;;;;;;5004133;28;20560;-72
2020/12/31 01:57:18;;;;;;;7.17;3.83;;;4.50;99.90;;;;;;5017155;28;20431;-71
2020/12/31 01:59:45;;;;;;;5.07;2.87;;;4.40;99.90;;;;;;5023555;28;20473;-71
2020/12/31 02:02:12;;;;;;;5.30;4.03;;;4.20;99.90;;;;;;5019748;28;22042;-72
2020/12/31 02:04:39;;;;;;;3.57;2.57;;;4.30;99.90;;;;;;5021785;28;20472;-72
2020/12/31 02:07:06;;;;;;;1.90;1.73;;;4.30;99.90;;;;;;5019508;28;20556;-71
2020/12/31 02:09:33;;;;;;;4.13;2.40;;;4.30;99.90;;;;;;5025961;28;20442;-71
2020/12/31 02:12:05;;;;;;;1.90;1.73;;;4.30;99.90;;;;;;5021154;28;20642;-71
2020/12/31 02:14:32;;;;;;;1.03;0.93;;;4.20;99.90;;;;;;5021144;28;20789;-71
2020/12/31 02:16:59;;;;;;;2.60;2.40;;;4.20;99.90;;;;;;5018379;28;20550;-71
2020/12/31 02:19:26;;;;;;;3.47;3.17;;;4.10;99.90;;;;;;5023898;28;20899;-71
2020/12/31 02:21:54;;;;;;;4.47;3.50;;;4.20;99.90;;;;;;5016963;28;20451;-71
2020/12/31 02:24:21;;;;;;;5.70;3.57;;;4.20;99.90;;;;;;5019970;28;20542;-71
2020/12/31 02:26:49;;;;;;;1.77;1.67;;;4.30;99.90;;;;;;5022236;28;20583;-71
2020/12/31 02:29:17;;;;;;;5.20;3.67;;;4.30;99.90;;;;;;5018760;28;20482;-71
2020/12/31 02:31:46;;;;;;;5.50;3.23;;;4.30;99.90;;;;;;5024380;28;21024;-71
2020/12/31 02:34:12;;;;;;;4.50;4.10;;;4.30;99.90;;;;;;5016208;28;20591;-72
2020/12/31 02:36:40;;;;;;;6.90;4.07;;;4.30;99.90;;;;;;5015627;28;20467;-71
2020/12/31 02:39:09;;;;;;;3.73;3.33;;;4.20;99.90;;;;;;5019514;28;20499;-72
2020/12/31 02:41:37;;;;;;;3.67;2.70;;;4.20;99.90;;;;;;5026151;28;20467;-72
2020/12/31 02:44:04;;;;;;;4.40;3.13;;;4.20;99.90;;;;;;5024871;28;20479;-72
2020/12/31 02:46:33;;;;;;;5.27;3.93;;;4.20;99.90;;;;;;5021038;28;20467;-72
2020/12/31 02:49:00;;;;;;;2.23;1.93;;;4.20;99.90;;;;;;5020582;28;20470;-72
2020/12/31 02:51:26;;;;;;;2.00;1.90;;;4.00;99.90;;;;;;5025360;28;21006;-72
2020/12/31 02:53:53;;;;;;;5.70;4.43;;;4.10;99.90;;;;;;5020786;28;20866;-72
2020/12/31 02:56:23;;;;;;;1.20;1.10;;;4.10;99.90;;;;;;5022936;28;20460;-72
2020/12/31 02:58:50;;;;;;;3.53;3.17;;;4.10;99.90;;;;;;5024519;28;20907;-72
2020/12/31 03:01:17;;;;;;;5.90;3.90;;;4.20;99.90;;;;;;5017350;28;20525;-72
2020/12/31 03:03:44;;;;;;;7.50;5.17;;;4.20;99.90;;;;;;5021721;28;20568;-72
2020/12/31 03:06:10;;;;;;;3.77;3.43;;;4.20;99.90;;;;;;5025928;28;20545;-72
2020/12/31 03:08:38;;;;;;;3.10;2.70;;;4.20;99.90;;;;;;5018856;28;20527;-72
2020/12/31 03:11:06;;;;;;;5.50;3.27;;;4.10;99.90;;;;;;5021442;28;20511;-70
2020/12/31 03:13:34;;;;;;;2.93;2.70;;;4.10;99.90;;;;;;5022707;28;20915;-71
2020/12/31 03:16:00;;;;;;;5.30;3.30;;;4.10;99.90;;;;;;5011852;28;20559;-71
2020/12/31 03:18:27;;;;;;;4.23;3.27;;;4.20;99.90;;;;;;5018232;28;20547;-71
2020/12/31 03:20:54;;;;;;;5.50;3.37;;;4.20;99.90;;;;;;5016921;28;20480;-71
2020/12/31 03:23:20;;;;;;;3.10;2.90;;;4.20;99.90;;;;;;5004050;28;20563;-71
2020/12/31 03:25:47;;;;;;;7.13;3.70;;;4.20;99.90;;;;;;5017934;28;20434;-71
2020/12/31 03:28:14;;;;;;;3.87;3.10;;;4.20;99.90;;;;;;5018991;28;20464;-71
2020/12/31 03:30:43;;;;;;;8.03;5.13;;;4.30;99.90;;;;;;5017084;28;24115;-72
2020/12/31 03:33:13;;;;;;;2.60;2.27;;;4.30;99.90;;;;;;5025593;28;20892;-72
2020/12/31 03:35:41;;;;;;;3.10;2.90;;;4.20;99.90;;;;;;5017266;28;20913;-72
2020/12/31 03:38:08;;;;;;;4.27;3.60;;;4.20;99.90;;;;;;5026576;28;20539;-72
2020/12/31 03:40:35;;;;;;;5.57;3.87;;;4.20;99.90;;;;;;5021951;28;20467;-72
2020/12/31 03:43:01;;;;;;;2.70;2.40;;;4.20;99.90;;;;;;5022495;28;20492;-72
2020/12/31 03:45:28;;;;;;;4.43;2.60;;;4.20;99.90;;;;;;5015911;28;20459;-72
2020/12/31 03:47:55;;;;;;;2.37;2.27;;;4.20;99.90;;;;;;5023834;28;20489;-72
2020/12/31 03:50:22;;;;;;;3.17;1.90;;;4.20;99.90;;;;;;5023462;28;20461;-71
2020/12/31 03:52:49;;;;;;;1.67;1.57;;;4.10;99.90;;;;;;5020513;28;20562;-71
2020/12/31 03:55:16;;;;;;;3.43;2.87;;;4.20;99.90;;;;;;5018388;28;21046;-71
2020/12/31 03:57:43;;;;;;;4.00;3.27;;;4.10;99.90;;;;;;5039303;28;20527;-71
2020/12/31 04:00:10;;;;;;;4.63;3.57;;;4.10;99.90;;;;;;5020891;28;20431;-71
2020/12/31 04:02:36;;;;;;;4.60;4.03;;;4.20;99.90;;;;;;5021460;28;20874;-69
2020/12/31 04:05:04;;;;;;;5.20;4.10;;;4.30;99.90;;;;;;5017256;28;21012;-71
2020/12/31 04:07:33;;;;;;;8.20;4.17;;;4.20;99.90;;;;;;5022816;28;20464;-71
2020/12/31 04:10:00;;;;;;;3.60;2.23;;;4.10;99.90;;;;;;5020235;28;20459;-71
2020/12/31 04:12:26;;;;;;;4.70;3.77;;;4.00;99.90;;;;;;5026330;28;20538;-71
2020/12/31 04:14:53;;;;;;;3.70;2.40;;;3.90;99.90;;;;;;5022124;28;20621;-70
2020/12/31 04:17:20;;;;;;;2.10;1.70;;;3.90;99.90;;;;;;5025538;28;20431;-71
2020/12/31 04:19:50;;;;;;;5.23;3.33;;;3.90;99.90;;;;;;5028394;28;20455;-71
2020/12/31 04:22:20;;;;;;;3.90;1.70;;;3.90;99.90;;;;;;5021389;28;20507;-71
2020/12/31 04:24:46;;;;;;;2.43;2.33;;;3.90;99.90;;;;;;5019973;28;20636;-71
2020/12/31 04:27:13;;;;;;;6.37;4.37;;;3.90;99.90;;;;;;5019958;28;20459;-72
2020/12/31 04:29:40;;;;;;;4.33;3.43;;;3.90;99.90;;;;;;5026814;28;20582;-71
2020/12/31 04:32:06;;;;;;;3.80;3.50;;;3.90;99.90;;;;;;5044547;28;20547;-71
2020/12/31 04:34:33;;;;;;;7.07;2.90;;;3.90;99.90;;;;;;5009465;28;20496;-71
2020/12/31 04:37:04;;;;;;;5.80;2.73;;;3.90;99.90;;;;;;5030959;28;20507;-71
2020/12/31 04:39:31;;;;;;;6.23;3.33;;;3.90;99.90;;;;;;5027921;28;20820;-71
2020/12/31 04:41:58;;;;;;;7.40;3.73;;;3.80;99.90;;;;;;5036624;28;20455;-71
2020/12/31 04:44:24;;;;;;;3.23;2.60;;;3.70;99.90;;;;;;5026598;28;20453;-71
2020/12/31 04:46:55;;;;;;;4.50;4.10;;;3.70;99.90;;;;;;5033825;28;20466;-71
2020/12/31 04:49:28;;;;;;;1.93;1.83;;;3.80;99.90;;;;;;5039059;28;20532;-71
2020/12/31 04:51:55;;;;;;;3.13;2.67;;;3.70;99.90;;;;;;5031223;28;20474;-71
2020/12/31 04:54:22;;;;;;;6.10;3.70;;;3.70;99.90;;;;;;5029705;28;20547;-71
2020/12/31 04:56:50;;;;;;;4.77;4.30;;;3.70;99.90;;;;;;5026848;28;20462;-70
2020/12/31 04:59:17;;;;;;;4.30;2.50;;;3.80;99.90;;;;;;5027916;28;20516;-71
2020/12/31 05:01:45;;;;;;;6.93;4.40;;;3.80;99.90;;;;;;5017428;28;20568;-71
2020/12/31 05:04:12;;;;;;;2.33;2.23;;;3.80;99.90;;;;;;5024175;28;20530;-71
2020/12/31 05:06:40;;;;;;;6.10;3.13;;;3.80;99.90;;;;;;5023673;28;20503;-71
2020/12/31 05:09:14;;;;;;;10.70;4.10;;;3.90;99.90;;;;;;5022620;28;20529;-70
2020/12/31 05:11:45;;;;;;;2.57;2.40;;;3.90;99.90;;;;;;5024603;28;20463;-70
2020/12/31 05:14:13;;;;;;;1.97;1.80;;;3.90;99.90;;;;;;5017357;28;20545;-71
2020/12/31 05:16:39;;;;;;;6.03;3.63;;;3.90;99.90;;;;;;5023274;28;20467;-71
2020/12/31 05:19:23;;;;;;;6.83;3.20;;;3.90;99.90;;;;;;5020128;28;20522;-71
2020/12/31 05:22:14;;;;;;;3.30;2.00;;;3.90;99.90;;;;;;5021989;28;20453;-71
2020/12/31 05:24:44;;;;;;;3.30;3.00;;;4.00;99.90;;;;;;5024250;28;20515;-71
2020/12/31 05:27:22;;;;;;;5.10;3.13;;;3.90;99.90;;;;;;5024101;28;20427;-71
2020/12/31 05:30:01;;;;;;;4.43;3.27;;;4.00;99.90;;;;;;5021858;28;20551;-71
2020/12/31 05:32:29;;;;;;;4.87;2.57;;;4.00;99.90;;;;;;5022158;28;20538;-71
2020/12/31 05:34:56;;;;;;;6.37;3.70;;;3.90;99.90;;;;;;5017523;28;20600;-71
2020/12/31 05:37:27;;;;;;;3.93;3.13;;;4.00;99.90;;;;;;5018101;28;20568;-71
2020/12/31 05:39:59;;;;;;;3.57;3.27;;;4.00;99.90;;;;;;5022858;28;20439;-71
2020/12/31 05:42:27;;;;;;;3.83;2.97;;;4.10;99.90;;;;;;5023556;28;21870;-71
2020/12/31 05:45:10;;;;;;;3.73;2.77;;;4.00;99.90;;;;;;5016630;28;20470;-70
2020/12/31 05:47:43;;;;;;;7.00;5.03;;;4.10;99.90;;;;;;5021677;28;20461;-71
2020/12/31 05:50:21;;;;;;;3.10;2.80;;;4.20;99.90;;;;;;5023856;28;20436;-73
2020/12/31 05:52:48;;;;;;;3.40;3.10;;;4.10;99.90;;;;;;5027575;28;20470;-71
2020/12/31 05:55:18;;;;;;;5.83;3.17;;;4.10;99.90;;;;;;5025142;28;20445;-73
2020/12/31 05:57:49;;;;;;;5.83;3.40;;;4.10;99.90;;;;;;5022308;28;20550;-73
2020/12/31 06:00:19;;;;;;;6.13;4.03;;;4.10;99.90;;;;;;5018259;28;20480;-73
2020/12/31 06:02:51;;;;;;;6.70;3.53;;;4.20;99.90;;;;;;5021467;28;20435;-72
2020/12/31 06:05:21;;;;;;;6.53;4.10;;;4.20;99.90;;;;;;5022016;28;20428;-72
2020/12/31 06:07:52;;;;;;;5.77;3.60;;;4.20;99.90;;;;;;5019362;28;20464;-73
2020/12/31 06:10:24;;;;;;;5.57;4.10;;;4.20;99.90;;;;;;5018497;28;20452;-73
2020/12/31 06:12:52;;;;;;;2.97;2.67;;;4.30;99.90;;;;;;5019980;28;20568;-72
2020/12/31 06:15:31;;;;;;;4.10;2.70;;;4.30;99.90;;;;;;5020698;28;20833;-72
2020/12/31 06:18:00;;;;;;;5.93;3.13;;;4.30;99.90;;;;;;5021841;28;20431;-72
2020/12/31 06:20:28;;;;;;;4.07;2.87;;;4.30;99.90;;;;;;5023993;28;20527;-72
2020/12/31 06:23:05;;;;;;;5.43;4.23;;;4.20;99.90;;;;;;5021795;28;20542;-72
2020/12/31 06:25:34;;;;;;;7.73;4.17;;;4.30;99.90;;;;;;5023369;28;20920;-72
2020/12/31 06:28:05;;;;;;;4.17;2.90;;;4.30;99.90;;;;;;5021628;28;20967;-73
2020/12/31 06:30:33;;;;;;;4.57;3.63;;;4.30;99.90;;;;;;5019884;28;20452;-73
2020/12/31 06:33:05;;;;;;;2.53;2.33;;;4.30;99.90;;;;;;5026211;28;21004;-72
2020/12/31 06:35:34;;;;;;;3.33;3.00;;;4.30;99.90;;;;;;5017761;28;21103;-72
2020/12/31 06:38:00;;;;;;;4.70;3.03;;;4.20;99.90;;;;;;5023146;28;20528;-72
2020/12/31 06:40:28;;;;;;;3.53;2.90;;;4.10;99.90;;;;;;5025937;28;20518;-72
2020/12/31 06:43:07;;;;;;;4.00;2.47;;;4.20;99.90;;;;;;5024275;28;20474;-73
2020/12/31 06:45:35;;;;;;;1.80;1.70;;;4.20;99.90;;;;;;5022412;28;20473;-72
2020/12/31 06:48:02;;;;;;;3.60;2.60;;;4.20;99.90;;;;;;5023511;28;20606;-72
2020/12/31 06:50:56;;;;;;;5.10;3.30;;;4.30;99.90;;;;;;5016742;28;20466;-74
2020/12/31 06:53:31;;;;;;;5.10;2.83;;;4.30;99.90;;;;;;5023385;28;20497;-72
2020/12/31 06:55:58;;;;;;;5.60;3.63;;;4.30;99.90;;;;;;5019246;28;20454;-73
2020/12/31 06:58:25;;;;;;;4.10;3.70;;;4.40;99.90;;;;;;5024172;28;20435;-73
2020/12/31 07:00:53;;;;;;;4.97;3.80;;;4.40;99.90;;;;;;5017521;28;20603;-73
2020/12/31 07:03:45;;;;;;;3.13;2.43;;;4.30;99.90;;;;;;5015826;28;20560;-73
2020/12/31 07:06:34;;;;;;;3.33;3.03;;;4.30;99.90;;;;;;5017764;28;20438;-73
2020/12/31 07:09:25;;;;;;;6.67;4.40;;;4.50;99.90;;;;;;5020379;28;20540;-72
2020/12/31 07:11:58;;;;;;;11.23;3.87;;;4.40;99.90;;;;;;5019159;28;20487;-73
2020/12/31 07:14:27;;;;;;;3.97;3.60;;;4.50;99.90;;;;;;5019642;28;20506;-72
2020/12/31 07:16:59;;;;;;;4.47;2.83;;;4.30;99.90;;;;;;5020720;28;20459;-73
2020/12/31 07:19:43;;;;;;;7.37;3.90;;;4.50;99.90;;;;;;5020492;28;20485;-72
2020/12/31 07:22:18;;;;;;;2.90;2.40;;;4.50;99.90;;;;;;5026632;28;20427;-73
2020/12/31 07:24:56;;;;;;;3.03;2.80;;;4.50;99.90;;;;;;5014190;28;20485;-73
2020/12/31 07:27:28;;;;;;;3.47;2.83;;;4.50;99.90;;;;;;5016208;28;20924;-73
2020/12/31 07:30:00;;;;;;;3.80;3.50;;;4.50;99.90;;;;;;5019490;28;20427;-73
2020/12/31 07:32:50;;;;;;;4.73;2.90;;;4.30;99.90;;;;;;5017693;28;20479;-73
2020/12/31 07:35:25;;;;;;;3.90;2.63;;;4.20;99.90;;;;;;5019058;28;20463;-73
2020/12/31 07:37:52;;;;;;;3.10;2.63;;;4.20;99.90;;;;;;5017644;28;20487;-72
2020/12/31 07:40:43;;;;;;;2.60;2.40;;;4.40;99.90;;;;;;5019518;28;20427;-72
2020/12/31 07:43:13;;;;;;;3.20;3.00;;;4.50;99.90;;;;;;5018077;28;21055;-72
2020/12/31 07:45:45;;;;;;;3.00;2.03;;;4.30;99.90;;;;;;5022475;28;20464;-72
2020/12/31 07:48:13;;;;;;;1.60;1.50;;;4.30;99.90;;;;;;5014523;28;20484;-72
2020/12/31 07:50:42;;;;;;;4.57;2.37;;;4.50;99.90;;;;;;5021288;28;20462;-71
2020/12/31 07:53:09;;;;;;;2.53;1.97;;;4.20;99.90;;;;;;5023955;28;21054;-72
2020/12/31 07:55:36;;;;;;;3.33;1.80;;;4.20;99.90;;;;;;5025306;28;20562;-73
2020/12/31 07:58:07;;;;;;;3.67;2.70;;;4.20;99.90;;;;;;5022267;28;20488;-72
2020/12/31 08:00:33;;;;;;;2.70;2.00;;;4.20;99.90;;;;;;5022723;28;20490;-72
2020/12/31 08:03:00;;;;;;;2.67;2.10;;;4.20;99.90;;;;;;5035489;28;20491;-72
2020/12/31 08:05:28;;;;;;;5.93;1.93;;;4.00;99.90;;;;;;5021294;28;20449;-72
2020/12/31 08:07:56;;;;;;;3.23;3.03;;;4.10;99.90;;;;;;5020584;28;20432;-72
2020/12/31 08:10:24;;;;;;;2.30;1.80;;;4.10;99.90;;;;;;5022230;28;20900;-72
2020/12/31 08:12:55;;;;;;;3.83;3.10;;;4.10;99.90;;;;;;5024639;28;20560;-72
2020/12/31 08:15:23;;;;;;;1.20;1.10;;;4.10;99.90;;;;;;5022232;28;20435;-72
2020/12/31 08:17:53;;;;;;;2.77;2.30;;;4.20;99.90;;;;;;5021661;28;21609;-72
2020/12/31 08:20:22;;;;;;;1.60;1.37;;;4.30;99.90;;;;;;5021916;28;20526;-72
2020/12/31 08:22:52;;;;;;;3.50;2.57;;;4.40;99.90;;;;;;5025721;28;20531;-72
2020/12/31 08:25:24;;;;;;;2.73;1.63;;;4.50;99.90;;;;;;5017995;28;20432;-72
2020/12/31 08:27:55;;;;;;;2.07;1.87;;;4.30;99.90;;;;;;5030495;28;20427;-71
2020/12/31 08:30:23;;;;;;;4.67;3.67;;;4.30;99.90;;;;;;5024027;28;20454;-72
2020/12/31 08:32:59;;;;;;;1.23;1.00;;;4.20;99.90;;;;;;5028532;28;20523;-72
2020/12/31 08:35:28;;;;;;;1.67;1.57;;;4.20;99.90;;;;;;5021358;28;20789;-71
2020/12/31 08:38:05;;;;;;;2.17;1.97;;;4.20;99.90;;;;;;5029190;28;20475;-72
2020/12/31 08:40:34;;;;;;;5.23;3.20;;;4.00;99.90;;;;;;5027188;28;20434;-72
2020/12/31 08:43:01;;;;;;;1.60;1.50;;;4.00;99.90;;;;;;5029970;28;20592;-72
2020/12/31 08:45:43;;;;;;;;;;;;;;;;;;;;;
2020/12/31 08:48:14;;;;;;;3.30;3.00;;;4.00;99.90;;;;;;5025141;28;20468;-72
2020/12/31 08:50:41;;;;;;;1.97;1.77;;;4.20;99.90;;;;;;5029704;28;20491;-71
2020/12/31 08:53:10;;;;;;;2.80;1.47;;;4.20;99.90;;;;;;5031880;28;20485;-71
2020/12/31 08:55:37;;;;;;;2.63;2.43;;;4.30;99.90;;;;;;5028729;28;22030;-72
2020/12/31 08:58:11;;;;;;;25.90;12.67;;;4.30;99.90;;;;;;5028456;28;20457;-72
2020/12/31 09:00:38;;;;;;;4.63;3.70;;;4.30;99.90;;;;;;5026818;28;21510;-72
2020/12/31 09:03:05;;;;;;;5.83;3.30;;;4.30;99.90;;;;;;5033098;28;20486;-72
2020/12/31 09:05:32;;;;;;;3.33;1.83;;;4.50;99.90;;;;;;5026323;28;20917;-72
2020/12/31 09:08:02;;;;;;;4.70;3.20;;;4.50;99.90;;;;;;5017367;28;20464;-72
2020/12/31 09:10:33;;;;;;;8.20;5.47;;;4.50;99.90;;;;;;5019233;28;20499;-72
2020/12/31 09:13:00;;;;;;;1.60;1.47;;;4.50;99.90;;;;;;5017134;28;20694;-72
2020/12/31 09:15:26;;;;;;;2.27;2.07;;;4.50;99.90;;;;;;5013896;28;20657;-72
2020/12/31 09:17:53;;;;;;;2.57;1.50;;;4.50;99.90;;;;;;5021442;28;20457;-72
2020/12/31 09:20:25;;;;;;;2.03;1.70;;;4.60;99.90;;;;;;5021742;28;20488;-72
2020/12/31 09:22:52;;;;;;;1.80;1.70;;;4.70;99.90;;;;;;5016458;28;20537;-73
2020/12/31 09:25:20;;;;;;;12.27;9.60;;;4.70;99.90;;;;;;5021766;28;20530;-72
2020/12/31 09:27:48;;;;;;;6.00;4.77;;;4.70;99.90;;;;;;5014710;28;20439;-72
2020/12/31 09:30:16;;;;;;;2.20;1.90;;;4.60;99.90;;;;;;5020738;28;20506;-72
2020/12/31 09:32:47;;;;;;;16.97;9.60;;;4.80;99.90;;;;;;5019598;28;20583;-71
2020/12/31 09:35:14;;;;;;;6.50;3.30;;;4.80;99.90;;;;;;5017858;28;20468;-70
2020/12/31 09:37:49;;;;;;;4.27;2.70;;;4.80;99.90;;;;;;5017853;28;20522;-72
2020/12/31 09:40:16;;;;;;;5.37;4.60;;;4.70;99.90;;;;;;5016514;28;20425;-71
2020/12/31 09:42:43;;;;;;;2.40;2.20;;;4.60;99.90;;;;;;5014066;28;20830;-72
2020/12/31 09:45:11;;;;;;;3.90;3.60;;;4.80;99.90;;;;;;5016354;28;20471;-72
2020/12/31 09:47:37;;;;;;;6.83;3.73;;;4.80;99.90;;;;;;5015216;28;20496;-71
2020/12/31 09:50:05;;;;;;;5.47;4.97;;;5.00;99.90;;;;;;5020145;28;20490;-71
2020/12/31 09:52:32;;;;;;;2.60;2.23;;;5.10;99.90;;;;;;5023415;28;20801;-70
2020/12/31 09:55:00;;;;;;;3.07;1.80;;;5.30;99.90;;;;;;5019446;28;20586;-71
2020/12/31 09:57:27;;;;;;;3.10;2.67;;;5.20;99.90;;;;;;5025145;28;20442;-71
2020/12/31 09:59:53;;;;;;;2.17;1.97;;;5.30;99.90;;;;;;5020221;28;20556;-71
2020/12/31 10:02:21;;;;;;;6.30;3.53;;;5.40;99.90;;;;;;5020851;28;20448;-71
2020/12/31 10:04:48;;;;;;;2.33;2.13;;;5.60;99.90;;;;;;5018374;28;20541;-71
2020/12/31 10:07:15;;;;;;;3.57;2.57;;;5.40;99.90;;;;;;5011044;28;20467;-72
2020/12/31 10:09:42;;;;;;;4.07;2.23;;;5.40;99.90;;;;;;5016615;28;20489;-72
2020/12/31 10:12:08;;;;;;;2.90;2.63;;;5.30;99.90;;;;;;5030029;28;20485;-70
2020/12/31 10:14:35;;;;;;;2.67;2.43;;;5.40;99.90;;;;;;5008996;28;20476;-70
2020/12/31 10:17:02;;;;;;;2.77;2.57;;;5.40;99.90;;;;;;5016525;28;20481;-71
2020/12/31 10:19:30;;;;;;;3.90;3.50;;;5.50;99.90;;;;;;5017950;28;20470;-71
2020/12/31 10:21:56;;;;;;;2.73;2.53;;;5.20;99.90;;;;;;5012354;28;20915;-71
2020/12/31 10:24:23;;;;;;;3.57;2.43;;;5.50;99.90;;;;;;5014364;28;20491;-71
2020/12/31 10:26:50;;;;;;;2.83;2.63;;;5.30;99.90;;;;;;5014828;28;20427;-71
2020/12/31 10:29:17;;;;;;;3.50;3.20;;;5.00;99.90;;;;;;5014101;28;20682;-71
2020/12/31 10:31:49;;;;;;;3.40;1.90;;;4.80;99.90;;;;;;5016481;28;20455;-71
2020/12/31 10:34:15;;;;;;;4.00;1.87;;;4.90;99.90;;;;;;5013113;28;20495;-71
2020/12/31 10:36:43;;;;;;;6.30;2.60;;;5.10;99.90;;;;;;5018438;28;20877;-71
2020/12/31 10:39:10;;;;;;;3.63;2.27;;;5.10;99.90;;;;;;5017486;28;20964;-71
2020/12/31 10:41:37;;;;;;;3.67;2.33;;;5.00;99.90;;;;;;5013137;28;20911;-71
2020/12/31 10:44:04;;;;;;;1.67;1.57;;;5.20;99.90;;;;;;5008707;28;20963;-70
2020/12/31 10:46:31;;;;;;;2.80;2.50;;;5.30;99.90;;;;;;5016279;28;20468;-71
2020/12/31 10:48:57;;;;;;;3.13;2.83;;;5.20;99.90;;;;;;5017569;28;20464;-71
2020/12/31 10:51:24;;;;;;;1.73;1.63;;;5.40;99.90;;;;;;5037660;28;20430;-71
2020/12/31 10:53:52;;;;;;;2.27;2.10;;;5.30;99.90;;;;;;5017886;28;20491;-71
2020/12/31 10:56:20;;;;;;;2.10;1.60;;;5.30;99.90;;;;;;5009453;28;20508;-71
2020/12/31 10:58:47;;;;;;;2.40;1.97;;;5.40;99.90;;;;;;5015185;28;20553;-71
2020/12/31 11:01:15;;;;;;;2.40;1.60;;;5.50;99.90;;;;;;5014105;28;20967;-71
2020/12/31 11:03:43;;;;;;;3.40;2.40;;;5.20;99.90;;;;;;5014393;28;20443;-71
2020/12/31 11:06:16;;;;;;;2.20;2.00;;;5.20;99.90;;;;;;5017378;28;20952;-70
2020/12/31 11:08:43;;;;;;;3.10;2.73;;;5.20;99.90;;;;;;5012079;28;20530;-71
2020/12/31 11:11:15;;;;;;;3.77;2.77;;;5.50;99.90;;;;;;5017959;28;20470;-71
2020/12/31 11:13:42;;;;;;;5.37;2.70;;;5.50;99.90;;;;;;5003789;28;20560;-71
2020/12/31 11:16:09;;;;;;;2.60;1.40;;;5.70;99.90;;;;;;5009233;28;20782;-71
2020/12/31 11:18:36;;;;;;;3.80;2.40;;;5.40;99.90;;;;;;5008731;28;20464;-71
2020/12/31 11:21:03;;;;;;;2.83;2.20;;;5.40;99.90;;;;;;5011846;28;20475;-71
2020/12/31 11:23:30;;;;;;;1.53;1.43;;;5.50;99.90;;;;;;5011548;28;20994;-71
2020/12/31 11:25:56;;;;;;;2.97;1.90;;;5.50;99.90;;;;;;5007230;28;20504;-70
2020/12/31 11:28:24;;;;;;;1.63;1.13;;;5.40;99.90;;;;;;5008940;28;20523;-71
2020/12/31 11:30:53;;;;;;;2.57;2.37;;;5.40;99.90;;;;;;5012765;28;20480;-71
2020/12/31 11:33:20;;;;;;;1.03;0.93;;;5.30;99.90;;;;;;5018692;28;21047;-71
2020/12/31 11:35:46;;;;;;;3.73;2.60;;;5.30;99.90;;;;;;5011993;28;20466;-71
2020/12/31 11:38:13;;;;;;;2.23;2.03;;;5.30;99.90;;;;;;5016839;28;20539;-72
2020/12/31 11:40:40;;;;;;;2.50;1.83;;;5.40;99.90;;;;;;5009112;28;20498;-71
2020/12/31 11:43:06;;;;;;;2.03;1.60;;;5.20;99.90;;;;;;5013168;28;20551;-71
2020/12/31 11:45:34;;;;;;;1.30;1.07;;;5.30;99.90;;;;;;5009180;28;20876;-71
2020/12/31 11:48:01;;;;;;;1.47;1.37;;;5.30;99.90;;;;;;5013344;28;20495;-71
2020/12/31 11:50:27;;;;;;;1.80;1.70;;;5.30;99.90;;;;;;5008820;28;20474;-72
2020/12/31 11:52:54;;;;;;;3.43;2.00;;;5.30;99.90;;;;;;4997816;28;20482;-71
2020/12/31 11:55:21;;;;;;;1.77;1.53;;;5.20;99.90;;;;;;5016432;28;20462;-71
2020/12/31 11:57:47;;;;;;;2.10;1.97;;;5.20;99.90;;;;;;5008121;28;20464;-72
2020/12/31 12:00:15;;;;;;;2.13;1.37;;;5.40;99.90;;;;;;5006543;28;21062;-71
2020/12/31 12:02:45;;;;;;;1.10;1.00;;;5.30;99.90;;;;;;5015284;28;20447;-71
2020/12/31 12:05:12;;;;;;;2.13;1.87;;;5.20;99.90;;;;;;5013665;28;20491;-71
2020/12/31 12:07:39;;;;;;;1.40;1.13;;;5.00;99.90;;;;;;5017619;28;20439;-71
2020/12/31 12:10:07;;;;;;;1.70;1.20;;;5.00;99.90;;;;;;5015962;28;20435;-72
2020/12/31 12:12:33;;;;;;;2.33;1.70;;;5.10;99.90;;;;;;5016851;28;20857;-72
2020/12/31 12:15:00;;;;;;;1.93;1.47;;;5.20;99.90;;;;;;5015883;28;21030;-73
2020/12/31 12:17:27;;;;;;;1.70;1.60;;;5.30;99.90;;;;;;5020404;28;20460;-71
2020/12/31 12:19:55;;;;;;;2.60;1.87;;;5.20;99.90;;;;;;5015464;28;20481;-71
2020/12/31 12:22:21;;;;;;;2.60;2.00;;;5.10;99.90;;;;;;5020497;28;20480;-70
2020/12/31 12:24:48;;;;;;;3.60;3.03;;;5.20;99.90;;;;;;5018297;28;20867;-72
2020/12/31 12:27:15;;;;;;;1.97;1.60;;;4.90;99.90;;;;;;5029193;28;20464;-71
2020/12/31 12:29:41;;;;;;;1.23;1.13;;;4.80;99.90;;;;;;5006443;28;20532;-71
2020/12/31 12:32:12;;;;;;;1.23;1.10;;;4.80;99.90;;;;;;5010182;28;20869;-71
2020/12/31 12:34:39;;;;;;;1.30;1.20;;;4.70;99.90;;;;;;5007684;28;20494;-70
2020/12/31 12:37:07;;;;;;;1.70;1.37;;;4.70;99.90;;;;;;5017631;28;20475;-71
2020/12/31 12:39:36;;;;;;;1.77;1.67;;;4.70;99.90;;;;;;5017869;28;20446;-72
2020/12/31 12:42:03;;;;;;;2.53;1.80;;;4.80;99.90;;;;;;5034754;28;20443;-70
2020/12/31 12:44:30;;;;;;;1.40;1.30;;;4.80;99.90;;;;;;5016005;28;20542;-71
2020/12/31 12:46:56;;;;;;;2.30;1.30;;;4.90;99.90;;;;;;5020000;28;22787;-70
2020/12/31 12:49:23;;;;;;;1.17;1.07;;;4.90;99.90;;;;;;5013799;28;20469;-70
2020/12/31 12:51:50;;;;;;;3.17;2.20;;;4.90;99.90;;;;;;5017966;28;20450;-70
2020/12/31 12:54:17;;;;;;;0.90;0.70;;;4.90;99.90;;;;;;5015326;28;20830;-71
2020/12/31 12:56:50;;;;;;;2.23;1.53;;;5.00;99.90;;;;;;5012128;28;20468;-70
2020/12/31 12:59:16;;;;;;;1.20;1.10;;;5.00;99.90;;;;;;5016802;28;20484;-71
2020/12/31 13:01:44;;;;;;;1.13;1.03;;;4.90;99.90;;;;;;5016596;28;20562;-70
2020/12/31 13:04:11;;;;;;;2.07;1.87;;;4.80;99.90;;;;;;5006143;28;20574;-73
2020/12/31 13:06:38;;;;;;;2.13;1.87;;;4.90;99.90;;;;;;5025639;28;20453;-71